Time;durP1;ratioP1;P1;durP2;ratioP2;P2;SDS_P1;SDS_P2;PMS_P1;PMS_P2;Temp;Humidity;BMP_temperature;BMP_pressure;BME280_temperature;BME280_humidity;BME280_pressure;Samples;Min_cycle;Max_cycle;Signal;HPM_P1;HPM_P2
2022/09/25 00:01:33;;;;;;;10.38;2.65;;;11.20;99.90;;;;;;5132982;27;20035;-67
2022/09/25 00:03:59;;;;;;;12.15;3.65;;;11.20;99.90;;;;;;5114303;28;20483;-67
2022/09/25 00:06:27;;;;;;;8.40;3.13;;;11.10;99.90;;;;;;5132337;27;20062;-67
2022/09/25 00:08:53;;;;;;;7.78;3.10;;;11.10;99.90;;;;;;5132722;27;20075;-67
2022/09/25 00:11:27;;;;;;;13.00;3.50;;;11.10;99.90;;;;;;5132720;27;20549;-67
2022/09/25 00:13:53;;;;;;;5.75;2.78;;;11.00;99.90;;;;;;5132562;27;20035;-67
2022/09/25 00:16:22;;;;;;;7.32;3.00;;;11.00;99.90;;;;;;5114627;28;20046;-67
2022/09/25 00:21:32;;;;;;;11.40;3.55;;;11.00;99.90;;;;;;5132598;28;20564;-67
2022/09/25 00:23:59;;;;;;;10.88;3.20;;;11.00;99.90;;;;;;5130994;27;20043;-67
2022/09/25 00:26:27;;;;;;;7.78;3.30;;;10.90;99.90;;;;;;5132631;27;20125;-67
2022/09/25 00:28:53;;;;;;;8.57;3.30;;;10.90;99.90;;;;;;5132681;27;20472;-67
2022/09/25 00:31:23;;;;;;;6.72;2.78;;;10.90;99.90;;;;;;5131285;27;20483;-67
2022/09/25 00:33:52;;;;;;;8.20;3.15;;;10.90;99.90;;;;;;5135276;27;20039;-67
2022/09/25 00:36:18;;;;;;;9.75;4.22;;;10.90;99.90;;;;;;5136693;27;20510;-67
2022/09/25 00:38:46;;;;;;;7.88;3.03;;;10.90;99.90;;;;;;5136699;27;20487;-67
2022/09/25 00:41:11;;;;;;;4.80;2.83;;;10.90;99.90;;;;;;5136632;27;20054;-67
2022/09/25 00:43:38;;;;;;;7.63;3.30;;;10.80;99.90;;;;;;5136658;27;20035;-67
2022/09/25 00:46:27;;;;;;;9.00;2.78;;;10.80;99.90;;;;;;5136214;27;20058;-67
2022/09/25 00:49:02;;;;;;;8.45;3.40;;;10.80;99.90;;;;;;5136738;27;20050;-67
2022/09/25 00:51:37;;;;;;;10.77;3.08;;;10.90;99.90;;;;;;5136597;27;20035;-67
2022/09/25 00:54:05;;;;;;;10.50;3.03;;;10.80;99.90;;;;;;5136251;27;20039;-67
2022/09/25 00:56:36;;;;;;;9.48;3.08;;;10.80;99.90;;;;;;5136287;27;20042;-67
2022/09/25 00:59:02;;;;;;;12.35;3.30;;;10.80;99.90;;;;;;5136467;27;20042;-67
2022/09/25 01:01:27;;;;;;;7.97;3.70;;;10.80;99.90;;;;;;5134876;27;20051;-67
2022/09/25 01:03:54;;;;;;;9.18;3.10;;;10.80;99.90;;;;;;5135852;27;20495;-67
2022/09/25 01:06:21;;;;;;;7.60;2.92;;;10.80;99.90;;;;;;5134521;27;20050;-67
2022/09/25 01:08:48;;;;;;;7.00;3.30;;;10.70;99.90;;;;;;5136092;27;20525;-67
2022/09/25 01:11:15;;;;;;;12.68;3.58;;;10.70;99.90;;;;;;5135944;27;20499;-67
2022/09/25 01:13:41;;;;;;;7.88;3.63;;;10.70;99.90;;;;;;5136021;27;20046;-67
2022/09/25 01:16:18;;;;;;;7.15;3.03;;;10.60;99.90;;;;;;5136009;27;20043;-67
2022/09/25 01:19:05;;;;;;;8.60;2.80;;;10.60;99.90;;;;;;5136018;27;20086;-67
2022/09/25 01:21:51;;;;;;;11.27;4.03;;;10.60;99.90;;;;;;5136006;27;20126;-67
2022/09/25 01:24:49;;;;;;;8.88;2.97;;;10.60;99.90;;;;;;5135525;27;20111;-67
2022/09/25 01:27:29;;;;;;;9.65;3.25;;;10.60;99.90;;;;;;5135303;27;20521;-67
2022/09/25 01:30:04;;;;;;;4.93;3.25;;;10.60;99.90;;;;;;5135822;27;20043;-67
2022/09/25 01:32:50;;;;;;;4.85;2.83;;;10.50;99.90;;;;;;5134422;27;20047;-67
2022/09/25 01:35:50;;;;;;;8.65;3.60;;;10.50;99.90;;;;;;5135308;27;20473;-67
2022/09/25 01:38:22;;;;;;;7.53;3.45;;;10.50;99.90;;;;;;5135750;27;20406;-67
2022/09/25 01:41:09;;;;;;;6.10;2.90;;;10.40;99.90;;;;;;5135601;27;20122;-67
2022/09/25 01:43:42;;;;;;;5.97;3.33;;;10.40;99.90;;;;;;5134130;27;20164;-67
2022/09/25 01:46:17;;;;;;;7.15;3.03;;;10.40;99.90;;;;;;5134706;27;20495;-67
2022/09/25 01:48:48;;;;;;;5.18;3.03;;;10.40;99.90;;;;;;5135372;27;20555;-67
2022/09/25 01:51:41;;;;;;;9.88;2.92;;;10.40;99.90;;;;;;5135522;27;20039;-67
2022/09/25 01:54:11;;;;;;;6.05;2.90;;;10.40;99.90;;;;;;5134800;27;20168;-67
2022/09/25 01:56:42;;;;;;;8.95;2.70;;;10.30;99.90;;;;;;5135203;27;20043;-67
2022/09/25 01:59:16;;;;;;;8.00;3.07;;;10.30;99.90;;;;;;5135357;27;20123;-67
2022/09/25 02:01:46;;;;;;;11.07;3.35;;;10.40;99.90;;;;;;5135286;27;20039;-67
2022/09/25 02:04:21;;;;;;;8.55;3.15;;;10.40;99.90;;;;;;5134774;27;20445;-67
2022/09/25 02:06:49;;;;;;;6.93;3.13;;;10.40;99.90;;;;;;5134858;27;20123;-67
2022/09/25 02:09:26;;;;;;;8.73;3.30;;;10.40;99.90;;;;;;5133606;27;20035;-67
2022/09/25 02:11:57;;;;;;;5.45;2.95;;;10.40;99.90;;;;;;5135191;27;20043;-67
2022/09/25 02:14:27;;;;;;;7.20;3.08;;;10.40;99.90;;;;;;5134685;27;20031;-67
2022/09/25 02:16:57;;;;;;;6.35;3.10;;;10.40;99.90;;;;;;5134906;27;20042;-67
2022/09/25 02:22:25;;;;;;;5.05;2.90;;;10.30;99.90;;;;;;5133468;27;20043;-67
2022/09/25 02:24:55;;;;;;;8.83;2.83;;;10.20;99.90;;;;;;5134426;27;20039;-67
2022/09/25 02:27:23;;;;;;;5.28;2.65;;;10.20;99.90;;;;;;5134664;27;20127;-67
2022/09/25 02:29:49;;;;;;;4.47;3.05;;;10.20;99.90;;;;;;5134923;27;20035;-67
2022/09/25 02:32:20;;;;;;;8.32;2.83;;;10.20;99.90;;;;;;5134780;27;20058;-67
2022/09/25 02:34:46;;;;;;;4.82;3.38;;;10.20;99.90;;;;;;5134344;27;20039;-67
2022/09/25 02:37:16;;;;;;;6.95;3.47;;;10.20;99.90;;;;;;5133172;27;20049;-67
2022/09/25 02:39:46;;;;;;;5.00;3.08;;;10.20;99.90;;;;;;5134334;27;20031;-67
2022/09/25 02:42:57;;;;;;;11.25;3.13;;;10.20;99.90;;;;;;5134568;27;20064;-67
2022/09/25 02:46:02;;;;;;;8.50;3.60;;;10.30;99.90;;;;;;5134075;27;20441;-67
2022/09/25 02:48:36;;;;;;;6.32;3.03;;;10.20;99.90;;;;;;5134535;27;20039;-67
2022/09/25 02:51:17;;;;;;;5.15;3.10;;;10.20;99.90;;;;;;5134357;27;20050;-67
2022/09/25 02:54:02;;;;;;;3.65;2.55;;;10.20;99.90;;;;;;5134065;27;20399;-67
2022/09/25 02:56:37;;;;;;;8.13;2.95;;;10.20;99.90;;;;;;5134045;27;20114;-67
2022/09/25 02:59:14;;;;;;;5.75;2.88;;;10.20;99.90;;;;;;5134200;27;20070;-67
2022/09/25 03:01:41;;;;;;;4.95;2.75;;;10.20;99.90;;;;;;5133967;27;20086;-67
2022/09/25 03:04:08;;;;;;;7.05;2.75;;;10.20;99.90;;;;;;5133701;27;20394;-67
2022/09/25 03:06:36;;;;;;;13.00;3.00;;;10.20;99.90;;;;;;5133620;27;20043;-67
2022/09/25 03:09:04;;;;;;;6.82;2.83;;;10.20;99.90;;;;;;5133814;27;20411;-67
2022/09/25 03:11:29;;;;;;;8.30;2.90;;;10.20;99.90;;;;;;5134009;27;20047;-67
2022/09/25 03:14:01;;;;;;;7.00;2.28;;;10.20;99.90;;;;;;5132058;27;20050;-67
2022/09/25 03:16:39;;;;;;;7.13;2.70;;;10.10;99.90;;;;;;5133883;27;20206;-67
2022/09/25 03:19:05;;;;;;;6.65;2.92;;;10.10;99.90;;;;;;5132363;27;20046;-67
2022/09/25 03:21:31;;;;;;;5.45;2.83;;;10.10;99.90;;;;;;5133649;27;20042;-67
2022/09/25 03:23:57;;;;;;;7.90;2.75;;;10.10;99.90;;;;;;5133176;27;20513;-67
2022/09/25 03:26:24;;;;;;;6.80;2.60;;;10.10;99.90;;;;;;5133551;27;20538;-67
2022/09/25 03:28:51;;;;;;;8.88;2.67;;;10.10;99.90;;;;;;5133553;27;20039;-67
2022/09/25 03:31:17;;;;;;;6.30;2.90;;;10.10;99.90;;;;;;5133450;27;20035;-67
2022/09/25 03:33:43;;;;;;;9.95;3.38;;;10.10;99.90;;;;;;5132976;27;20118;-67
2022/09/25 03:36:20;;;;;;;7.78;2.90;;;10.10;99.90;;;;;;5133344;27;20063;-67
2022/09/25 03:38:49;;;;;;;7.25;2.50;;;10.10;99.90;;;;;;5133451;27;20062;-67
2022/09/25 03:41:18;;;;;;;4.55;3.00;;;10.10;99.90;;;;;;5133340;27;20456;-67
2022/09/25 03:43:46;;;;;;;11.40;3.25;;;10.10;99.90;;;;;;5132946;27;20043;-67
2022/09/25 03:46:13;;;;;;;6.40;2.60;;;10.10;99.90;;;;;;5133462;27;20159;-67
2022/09/25 03:48:40;;;;;;;6.72;2.67;;;10.10;99.90;;;;;;5133326;27;20035;-67
2022/09/25 03:51:08;;;;;;;5.90;3.00;;;10.00;99.90;;;;;;5133055;27;20483;-67
2022/09/25 03:53:34;;;;;;;8.25;2.75;;;10.00;99.90;;;;;;5114957;28;20079;-67
2022/09/25 03:56:02;;;;;;;9.25;3.00;;;10.10;99.90;;;;;;5131422;27;20043;-67
2022/09/25 03:58:28;;;;;;;9.55;2.90;;;10.00;99.90;;;;;;5132849;27;20054;-67
2022/09/25 04:00:56;;;;;;;9.05;2.65;;;10.10;99.90;;;;;;5131676;27;20047;-67
2022/09/25 04:03:23;;;;;;;9.80;2.65;;;10.00;99.90;;;;;;5133164;27;20399;-67
2022/09/25 04:05:49;;;;;;;4.43;2.72;;;10.00;99.90;;;;;;5132461;27;20475;-67
2022/09/25 04:08:15;;;;;;;9.52;2.75;;;10.00;99.90;;;;;;5132289;27;20054;-67
2022/09/25 04:10:41;;;;;;;7.25;2.60;;;10.00;99.90;;;;;;5132718;27;20035;-67
2022/09/25 04:13:11;;;;;;;12.18;2.80;;;10.00;99.90;;;;;;5133073;27;20087;-67
2022/09/25 04:15:41;;;;;;;10.20;2.90;;;10.00;99.90;;;;;;5114319;28;20065;-67
2022/09/25 04:18:07;;;;;;;9.68;3.10;;;9.90;99.90;;;;;;5132912;27;20071;-67
2022/09/25 04:20:33;;;;;;;8.27;2.83;;;9.90;99.90;;;;;;5132678;27;20074;-67
2022/09/25 04:22:59;;;;;;;7.18;2.50;;;9.90;99.90;;;;;;5132747;27;20070;-67
2022/09/25 04:25:24;;;;;;;6.57;2.88;;;9.90;99.90;;;;;;5132635;27;20065;-67
2022/09/25 04:27:54;;;;;;;9.50;2.90;;;9.90;99.90;;;;;;5132682;27;20084;-67
2022/09/25 04:30:25;;;;;;;10.05;3.05;;;9.90;99.90;;;;;;5132819;27;20039;-67
2022/09/25 04:35:36;;;;;;;8.95;2.38;;;9.90;99.90;;;;;;5132148;28;20047;-67
2022/09/25 04:38:01;;;;;;;8.60;2.70;;;9.90;99.90;;;;;;5147974;27;20126;-67
2022/09/25 04:40:28;;;;;;;11.18;2.63;;;9.90;99.90;;;;;;5153206;27;20087;-67
2022/09/25 04:43:01;;;;;;;5.93;2.47;;;9.80;99.90;;;;;;5153300;27;20420;-67
2022/09/25 04:45:28;;;;;;;8.70;3.00;;;9.90;99.90;;;;;;5152946;27;20504;-67
2022/09/25 04:47:54;;;;;;;7.60;2.97;;;9.90;99.90;;;;;;5153235;27;20046;-67
2022/09/25 04:50:21;;;;;;;7.07;2.78;;;9.80;99.90;;;;;;5153114;27;20532;-67
2022/09/25 04:52:48;;;;;;;7.28;2.80;;;9.80;99.90;;;;;;5153218;27;20035;-67
2022/09/25 04:55:15;;;;;;;9.93;2.75;;;9.80;99.90;;;;;;5152994;27;20042;-67
2022/09/25 04:57:41;;;;;;;7.88;3.08;;;9.70;99.90;;;;;;5153131;27;20053;-67
2022/09/25 05:00:07;;;;;;;7.00;2.58;;;9.70;99.90;;;;;;5152963;27;20035;-67
2022/09/25 05:02:33;;;;;;;7.63;2.75;;;9.70;99.90;;;;;;5152988;27;20035;-67
2022/09/25 05:04:58;;;;;;;3.38;2.42;;;9.60;99.90;;;;;;5152907;27;20451;-67
2022/09/25 05:07:24;;;;;;;8.65;3.00;;;9.60;99.90;;;;;;5153219;27;20039;-67
2022/09/25 05:09:50;;;;;;;6.15;2.60;;;9.60;99.90;;;;;;5153135;27;20657;-67
2022/09/25 05:12:15;;;;;;;6.82;2.55;;;9.60;99.90;;;;;;5152929;27;20039;-67
2022/09/25 05:14:41;;;;;;;8.50;3.03;;;9.60;99.90;;;;;;5152448;27;20035;-67
2022/09/25 05:17:07;;;;;;;7.40;3.00;;;9.60;99.90;;;;;;5152940;27;20062;-67
2022/09/25 05:19:34;;;;;;;6.82;3.03;;;9.60;99.90;;;;;;5152008;27;20043;-67
2022/09/25 05:21:59;;;;;;;6.60;2.80;;;9.60;99.90;;;;;;5153502;27;20039;-67
2022/09/25 05:24:25;;;;;;;7.50;2.88;;;9.60;99.90;;;;;;5152925;27;20047;-67
2022/09/25 05:26:50;;;;;;;7.82;3.08;;;9.60;99.90;;;;;;5156685;27;20038;-67
2022/09/25 05:29:16;;;;;;;5.60;2.65;;;9.60;99.90;;;;;;5154044;27;20063;-67
2022/09/25 05:31:45;;;;;;;5.97;2.33;;;9.60;99.90;;;;;;5155910;27;20035;-67
2022/09/25 05:34:11;;;;;;;8.43;2.95;;;9.60;99.90;;;;;;5156285;27;20054;-67
2022/09/25 05:36:37;;;;;;;5.97;2.67;;;9.60;99.90;;;;;;5156645;27;20121;-67
2022/09/25 05:39:03;;;;;;;4.82;2.50;;;9.60;99.90;;;;;;5156449;27;20110;-67
2022/09/25 05:41:30;;;;;;;10.00;3.03;;;9.60;99.90;;;;;;5156278;27;20513;-67
2022/09/25 05:43:56;;;;;;;8.35;2.47;;;9.60;99.90;;;;;;5154883;27;20066;-67
2022/09/25 05:46:22;;;;;;;4.07;2.50;;;9.70;99.90;;;;;;5156112;27;20050;-67
2022/09/25 05:48:48;;;;;;;9.50;3.25;;;9.70;99.90;;;;;;5156341;27;20039;-67
2022/09/25 05:51:14;;;;;;;14.30;2.90;;;9.70;99.90;;;;;;5154758;27;20070;-67
2022/09/25 05:53:39;;;;;;;5.72;2.75;;;9.70;99.90;;;;;;5156086;27;20045;-67
2022/09/25 05:56:05;;;;;;;6.65;2.58;;;9.70;99.90;;;;;;5155827;27;20045;-67
2022/09/25 05:58:33;;;;;;;5.30;2.67;;;9.70;99.90;;;;;;5156016;27;20043;-67
2022/09/25 06:01:00;;;;;;;7.57;3.20;;;9.70;99.90;;;;;;5155847;27;20403;-67
2022/09/25 06:03:28;;;;;;;8.95;3.08;;;9.70;99.90;;;;;;5156069;27;20035;-67
2022/09/25 06:05:55;;;;;;;6.47;2.88;;;9.70;99.90;;;;;;5155631;27;20038;-67
2022/09/25 06:08:21;;;;;;;5.93;2.70;;;9.70;99.90;;;;;;5155858;27;20095;-67
2022/09/25 06:10:53;;;;;;;4.78;2.53;;;9.70;99.90;;;;;;5155572;27;20034;-67
2022/09/25 06:13:20;;;;;;;6.90;2.60;;;9.80;99.90;;;;;;5155767;27;20065;-67
2022/09/25 06:15:49;;;;;;;6.60;2.78;;;9.80;99.90;;;;;;5155304;27;20094;-67
2022/09/25 06:18:15;;;;;;;4.30;2.80;;;9.80;99.90;;;;;;5154260;27;20042;-67
2022/09/25 06:20:40;;;;;;;6.40;3.00;;;9.80;99.90;;;;;;5155664;27;20049;-67
2022/09/25 06:23:06;;;;;;;7.90;2.58;;;9.90;99.90;;;;;;5155589;27;20057;-67
2022/09/25 06:25:31;;;;;;;6.65;2.88;;;9.90;99.90;;;;;;5155193;27;20548;-67
2022/09/25 06:27:59;;;;;;;9.73;2.70;;;9.90;99.90;;;;;;5155352;27;20035;-67
2022/09/25 06:30:33;;;;;;;6.38;2.75;;;10.00;99.90;;;;;;5153797;27;20066;-67
2022/09/25 06:33:04;;;;;;;7.45;2.85;;;10.00;99.90;;;;;;5154006;27;20086;-67
2022/09/25 06:35:29;;;;;;;6.38;2.67;;;10.10;99.90;;;;;;5155108;27;20046;-67
2022/09/25 06:37:59;;;;;;;6.25;2.92;;;10.10;99.90;;;;;;5153926;27;20042;-67
2022/09/25 06:40:29;;;;;;;8.82;2.88;;;10.20;99.90;;;;;;5155088;27;20095;-67
2022/09/25 06:43:01;;;;;;;5.13;2.55;;;10.20;99.90;;;;;;5141952;27;20449;-68
2022/09/25 06:45:29;;;;;;;3.97;2.10;;;10.30;99.90;;;;;;5134357;27;20095;-67
2022/09/25 06:48:04;;;;;;;5.18;2.25;;;10.30;99.90;;;;;;5138062;27;20043;-67
2022/09/25 06:50:42;;;;;;;7.75;2.63;;;10.30;99.90;;;;;;5149965;27;20130;-68
2022/09/25 06:53:10;;;;;;;4.20;2.35;;;10.30;99.90;;;;;;5143669;27;20038;-68
2022/09/25 06:55:36;;;;;;;7.90;2.83;;;10.40;99.90;;;;;;5153902;27;20043;-69
2022/09/25 06:58:03;;;;;;;10.43;2.45;;;10.40;99.90;;;;;;5167176;27;20040;-68
2022/09/25 07:00:29;;;;;;;7.72;2.83;;;10.40;99.90;;;;;;5137594;27;20049;-68
2022/09/25 07:05:43;;;;;;;5.25;2.55;;;10.40;99.90;;;;;;5154181;27;20038;-68
2022/09/25 07:08:13;;;;;;;3.15;2.15;;;10.50;99.90;;;;;;5154667;27;20539;-69
2022/09/25 07:10:39;;;;;;;6.65;2.47;;;10.50;99.90;;;;;;5153527;27;20583;-68
2022/09/25 07:13:05;;;;;;;6.03;2.42;;;10.50;99.90;;;;;;5154653;27;20129;-68
2022/09/25 07:15:31;;;;;;;5.22;2.38;;;10.60;99.90;;;;;;5154109;27;20045;-68
2022/09/25 07:17:56;;;;;;;7.93;2.63;;;10.60;99.90;;;;;;5153253;27;20038;-68
2022/09/25 07:20:22;;;;;;;6.72;2.20;;;10.60;99.90;;;;;;5143454;27;20502;-68
2022/09/25 07:22:47;;;;;;;4.95;2.10;;;10.60;99.90;;;;;;5143337;27;20439;-68
2022/09/25 07:25:13;;;;;;;5.47;2.67;;;10.70;99.90;;;;;;5142302;27;20027;-68
2022/09/25 07:27:39;;;;;;;5.80;2.30;;;10.70;99.90;;;;;;5143812;27;20068;-68
2022/09/25 07:30:05;;;;;;;8.82;2.78;;;10.70;99.90;;;;;;5144078;27;20042;-68
2022/09/25 07:32:31;;;;;;;10.90;3.15;;;10.80;99.90;;;;;;5142067;27;20194;-68
2022/09/25 07:34:57;;;;;;;8.70;2.47;;;10.60;99.90;;;;;;5143672;27;20064;-68
2022/09/25 07:37:23;;;;;;;4.60;2.10;;;10.70;99.90;;;;;;5143850;27;20035;-68
2022/09/25 07:39:48;;;;;;;9.15;2.30;;;10.70;99.90;;;;;;5142027;27;20065;-68
2022/09/25 07:42:15;;;;;;;6.82;2.65;;;10.80;99.90;;;;;;5143408;27;20127;-68
2022/09/25 07:44:41;;;;;;;4.40;2.10;;;10.80;99.90;;;;;;5143002;27;20039;-68
2022/09/25 07:47:07;;;;;;;7.43;2.17;;;10.80;99.90;;;;;;5141997;27;20555;-68
2022/09/25 07:49:33;;;;;;;6.43;2.42;;;10.90;99.90;;;;;;5142117;27;20491;-68
2022/09/25 07:52:00;;;;;;;6.32;2.00;;;11.00;99.90;;;;;;5143377;27;20042;-69
2022/09/25 07:54:26;;;;;;;4.13;2.15;;;10.90;99.90;;;;;;5141928;27;20070;-68
2022/09/25 07:56:51;;;;;;;5.68;2.03;;;11.00;99.90;;;;;;5140537;27;20071;-68
2022/09/25 07:59:17;;;;;;;8.15;2.08;;;11.00;99.90;;;;;;5142300;27;20080;-68
2022/09/25 08:01:42;;;;;;;8.52;2.60;;;11.10;99.90;;;;;;5143109;27;20514;-68
2022/09/25 08:04:09;;;;;;;6.20;2.15;;;11.10;99.90;;;;;;5138765;27;20724;-68
2022/09/25 08:06:35;;;;;;;5.88;2.08;;;11.20;99.90;;;;;;5133351;27;20107;-68
2022/09/25 08:09:00;;;;;;;9.48;2.13;;;11.20;99.90;;;;;;5131628;27;20045;-67
2022/09/25 08:11:27;;;;;;;6.95;2.25;;;11.20;99.90;;;;;;5132476;27;20172;-67
2022/09/25 08:13:52;;;;;;;15.27;1.85;;;11.20;99.90;;;;;;5132614;27;20047;-68
2022/09/25 08:16:21;;;;;;;10.05;2.00;;;11.20;99.90;;;;;;5133001;27;20059;-68
2022/09/25 08:18:48;;;;;;;8.57;1.92;;;11.30;99.90;;;;;;5131504;28;20091;-67
2022/09/25 08:21:16;;;;;;;6.90;2.10;;;11.50;99.90;;;;;;5131498;28;20039;-67
2022/09/25 08:23:43;;;;;;;8.63;2.08;;;11.60;99.90;;;;;;5132596;27;20031;-67
2022/09/25 08:26:09;;;;;;;8.90;2.08;;;11.60;99.90;;;;;;5132684;27;20530;-67
2022/09/25 08:28:34;;;;;;;11.48;1.98;;;11.50;99.90;;;;;;5132916;27;20046;-67
2022/09/25 08:31:02;;;;;;;5.13;1.77;;;11.60;99.90;;;;;;5132920;27;20036;-67
2022/09/25 08:33:28;;;;;;;4.07;1.42;;;11.60;99.90;;;;;;5132824;27;20059;-67
2022/09/25 08:35:56;;;;;;;5.00;1.90;;;11.60;99.90;;;;;;5132734;27;20512;-67
2022/09/25 08:38:23;;;;;;;7.38;2.10;;;11.70;99.90;;;;;;5132654;27;20063;-67
2022/09/25 08:41:02;;;;;;;4.72;1.55;;;11.80;99.90;;;;;;5132811;27;20039;-67
2022/09/25 08:43:30;;;;;;;8.05;2.55;;;11.90;99.90;;;;;;5132686;27;20067;-67
2022/09/25 08:49:04;;;;;;;9.10;1.50;;;11.90;99.90;;;;;;5132632;27;20043;-67
2022/09/25 08:51:34;;;;;;;9.27;1.85;;;12.00;99.90;;;;;;5132582;27;20518;-67
2022/09/25 08:54:01;;;;;;;4.55;1.85;;;12.10;99.90;;;;;;5132610;27;20405;-68
2022/09/25 08:56:28;;;;;;;3.30;1.48;;;12.20;99.90;;;;;;5136701;27;20035;-67
2022/09/25 08:59:15;;;;;;;8.10;1.67;;;12.20;99.90;;;;;;5136341;27;20035;-67
2022/09/25 09:01:52;;;;;;;12.10;1.80;;;12.30;99.90;;;;;;5142532;27;20050;-67
2022/09/25 09:04:45;;;;;;;4.65;1.60;;;12.40;99.90;;;;;;5154596;27;20050;-67
2022/09/25 09:07:13;;;;;;;;;;;12.40;99.90;;;;;;5157619;27;20049;-67
2022/09/25 09:09:59;;;;;;;8.55;2.00;;;12.40;99.90;;;;;;5156917;27;19922;-67
2022/09/25 09:12:51;;;;;;;6.45;1.35;;;12.50;99.90;;;;;;5157201;27;20043;-67
2022/09/25 09:15:38;;;;;;;3.42;1.33;;;12.60;99.90;;;;;;5147832;27;20103;-67
2022/09/25 09:18:26;;;;;;;6.90;1.50;;;12.60;99.90;;;;;;5156760;27;20118;-67
2022/09/25 09:20:52;;;;;;;9.07;1.50;;;12.80;99.90;;;;;;5156617;27;20039;-67
2022/09/25 09:23:21;;;;;;;6.97;1.50;;;12.80;99.90;;;;;;5154899;27;20039;-67
2022/09/25 09:25:59;;;;;;;4.20;1.60;;;12.90;99.90;;;;;;5155548;27;20035;-67
2022/09/25 09:28:45;;;;;;;4.93;1.33;;;13.00;99.90;;;;;;5155603;27;20415;-67
2022/09/25 09:31:32;;;;;;;6.18;1.50;;;12.90;99.90;;;;;;5156061;27;20045;-67
2022/09/25 09:34:23;;;;;;;4.20;1.77;;;13.00;99.90;;;;;;5155888;27;20042;-67
2022/09/25 09:37:06;;;;;;;7.97;1.42;;;13.10;99.90;;;;;;5156316;27;20039;-67
2022/09/25 09:39:47;;;;;;;6.13;1.23;;;13.30;99.90;;;;;;5137728;27;20518;-67
2022/09/25 09:43:02;;;;;;;8.43;1.42;;;13.40;99.90;;;;;;5146076;27;20052;-67
2022/09/25 09:45:51;;;;;;;4.18;1.33;;;13.50;99.90;;;;;;5098146;27;20103;-67
2022/09/25 09:48:43;;;;;;;5.78;1.20;;;13.40;99.90;;;;;;5138263;27;20118;-67
2022/09/25 09:51:18;;;;;;;8.67;1.43;;;13.50;99.90;;;;;;5134767;27;20436;-67
2022/09/25 09:53:56;;;;;;;6.25;1.23;;;13.60;99.90;;;;;;5134982;27;20156;-67
2022/09/25 09:56:29;;;;;;;6.20;1.60;;;13.60;99.90;;;;;;5116515;27;20130;-67
2022/09/25 09:59:13;;;;;;;5.38;1.30;;;13.50;99.90;;;;;;5135227;27;20042;-67
2022/09/25 10:01:41;;;;;;;7.80;1.00;;;13.50;99.90;;;;;;5135015;27;20527;-67
2022/09/25 10:04:35;;;;;;;6.03;1.35;;;13.50;99.90;;;;;;5134449;27;20125;-67
2022/09/25 10:07:17;;;;;;;4.07;1.35;;;13.50;99.90;;;;;;5132367;27;20047;-67
2022/09/25 10:09:43;;;;;;;4.15;1.20;;;13.40;99.90;;;;;;5135091;27;20126;-67
2022/09/25 10:12:27;;;;;;;10.38;1.27;;;13.50;99.90;;;;;;5133413;27;20079;-67
2022/09/25 10:14:53;;;;;;;7.78;1.00;;;13.60;99.90;;;;;;5133124;27;20051;-67
2022/09/25 10:17:23;;;;;;;5.45;1.42;;;13.80;99.90;;;;;;5135022;27;20039;-67
2022/09/25 10:19:57;;;;;;;7.47;1.38;;;13.90;99.90;;;;;;5134869;27;20050;-67
2022/09/25 10:22:32;;;;;;;6.22;1.25;;;13.90;99.90;;;;;;5150696;27;20038;-68
2022/09/25 10:25:02;;;;;;;6.53;1.08;;;13.90;99.90;;;;;;5154666;27;20487;-67
2022/09/25 10:27:30;;;;;;;5.35;1.30;;;13.90;99.90;;;;;;5155421;27;20083;-67
2022/09/25 10:30:14;;;;;;;3.70;0.98;;;13.90;99.90;;;;;;5155318;27;20113;-67
2022/09/25 10:33:19;;;;;;;4.32;1.00;;;13.80;99.90;;;;;;5153570;27;20074;-68
2022/09/25 10:35:45;;;;;;;6.78;1.20;;;13.80;99.90;;;;;;5053790;28;20087;-67
2022/09/25 10:38:42;;;;;;;5.70;0.98;;;13.70;99.90;;;;;;5140154;27;20134;-67
2022/09/25 10:41:13;;;;;;;1.75;1.13;;;13.70;99.90;;;;;;5154991;27;20062;-67
2022/09/25 10:44:00;;;;;;;3.00;1.05;;;13.70;99.90;;;;;;5154496;27;20030;-67
2022/09/25 10:52:08;;;;;;;4.75;0.93;;;13.70;99.90;;;;;;5154397;27;20050;-67
2022/09/25 10:54:35;;;;;;;2.75;0.98;;;13.70;99.90;;;;;;5154295;27;20049;-67
2022/09/25 10:57:12;;;;;;;3.85;1.10;;;13.70;99.90;;;;;;5154883;27;20043;-68
2022/09/25 10:59:39;;;;;;;4.47;1.38;;;13.80;99.90;;;;;;5154854;27;20039;-67
2022/09/25 11:02:19;;;;;;;5.43;1.30;;;13.90;99.90;;;;;;5154780;27;20440;-67
2022/09/25 11:04:45;;;;;;;6.45;1.17;;;14.00;99.90;;;;;;5154617;27;20091;-67
2022/09/25 11:07:21;;;;;;;4.60;1.33;;;14.10;99.90;;;;;;5154872;27;20041;-67
2022/09/25 11:09:47;;;;;;;3.00;1.08;;;14.20;99.90;;;;;;5154723;27;20027;-67
2022/09/25 11:12:20;;;;;;;6.70;1.35;;;14.20;99.90;;;;;;5154624;27;20046;-67
2022/09/25 11:15:04;;;;;;;6.15;1.40;;;14.30;99.90;;;;;;5154150;27;20111;-67
2022/09/25 11:17:41;;;;;;;3.13;1.10;;;14.30;99.90;;;;;;5153714;27;20030;-67
2022/09/25 11:20:28;;;;;;;7.35;1.20;;;14.40;99.90;;;;;;5154545;27;20042;-67
2022/09/25 11:23:03;;;;;;;5.10;1.10;;;14.40;99.90;;;;;;5154518;27;20042;-67
2022/09/25 11:25:51;;;;;;;7.95;1.00;;;14.50;99.90;;;;;;5154125;27;20049;-67
2022/09/25 11:28:26;;;;;;;3.17;0.77;;;14.50;99.90;;;;;;5154361;27;20080;-67
2022/09/25 11:31:10;;;;;;;3.95;0.90;;;14.50;99.90;;;;;;5154273;27;20095;-67
2022/09/25 11:34:16;;;;;;;2.10;0.95;;;14.50;99.90;;;;;;5154138;27;20047;-67
2022/09/25 11:36:54;;;;;;;6.65;1.00;;;14.60;99.90;;;;;;5130184;27;20426;-67
2022/09/25 11:42:31;;;;;;;5.95;0.90;;;14.70;99.90;;;;;;5154147;27;20179;-67
2022/09/25 11:45:35;;;;;;;4.30;0.95;;;14.70;99.90;;;;;;5152655;27;20066;-67
2022/09/25 11:48:22;;;;;;;2.80;0.90;;;14.70;99.90;;;;;;5154081;27;20053;-67
2022/09/25 11:50:53;;;;;;;2.92;0.77;;;14.80;99.90;;;;;;5153526;27;20035;-67
2022/09/25 11:53:42;;;;;;;3.38;0.90;;;14.90;99.90;;;;;;5153922;27;20095;-67
2022/09/25 11:56:27;;;;;;;3.90;0.73;;;14.80;99.90;;;;;;5153786;27;20073;-67
2022/09/25 11:59:06;;;;;;;4.05;0.80;;;14.90;99.90;;;;;;5153817;27;20127;-68
2022/09/25 12:01:37;;;;;;;5.20;0.98;;;15.00;99.90;;;;;;5152214;27;20114;-68
2022/09/25 12:04:38;;;;;;;3.50;0.82;;;15.00;99.90;;;;;;5153314;27;20034;-68
2022/09/25 12:07:39;;;;;;;4.18;1.20;;;15.20;99.90;;;;;;5152605;27;20110;-67
2022/09/25 12:10:18;;;;;;;4.82;1.25;;;15.30;99.90;;;;;;5153586;27;20041;-66
2022/09/25 12:13:00;;;;;;;3.15;0.75;;;15.20;99.90;;;;;;5153891;27;20042;-67
2022/09/25 12:15:26;;;;;;;2.60;0.85;;;15.20;99.90;;;;;;5153400;27;20030;-66
2022/09/25 12:18:14;;;;;;;2.05;0.80;;;15.10;99.90;;;;;;5153652;27;20116;-67
2022/09/25 12:20:57;;;;;;;3.33;0.88;;;15.20;99.90;;;;;;5153578;27;20039;-67
2022/09/25 12:23:30;;;;;;;6.00;1.00;;;15.20;99.90;;;;;;5153730;27;20038;-67
2022/09/25 12:26:19;;;;;;;1.67;0.65;;;15.20;99.90;;;;;;5153215;27;20031;-67
2022/09/25 12:29:02;;;;;;;3.10;0.80;;;15.20;99.90;;;;;;5154621;27;20035;-67
2022/09/25 12:31:45;;;;;;;3.75;0.90;;;15.20;99.90;;;;;;5157996;27;20066;-67
2022/09/25 12:34:29;;;;;;;;;;;15.30;99.90;;;;;;5157396;27;20070;-66
2022/09/25 12:37:25;;;;;;;3.38;1.08;;;15.20;99.90;;;;;;5157680;27;19944;-67
2022/09/25 12:40:04;;;;;;;3.00;0.82;;;15.30;99.90;;;;;;5157673;27;20053;-67
2022/09/25 12:43:04;;;;;;;1.58;0.82;;;15.20;99.90;;;;;;5156199;27;20039;-67
2022/09/25 12:45:48;;;;;;;3.72;1.13;;;15.10;99.90;;;;;;5156087;27;20070;-67
2022/09/25 12:48:30;;;;;;;4.57;1.00;;;15.00;99.90;;;;;;5156402;27;20039;-66
2022/09/25 12:51:17;;;;;;;7.95;1.00;;;15.10;99.90;;;;;;5139080;27;20464;-67
2022/09/25 12:53:49;;;;;;;1.75;0.80;;;15.00;99.90;;;;;;5157156;27;20042;-66
2022/09/25 12:56:23;;;;;;;6.45;1.63;;;15.00;99.90;;;;;;5157257;27;20038;-67
2022/09/25 12:59:15;;;;;;;2.47;0.75;;;15.00;99.90;;;;;;5157286;27;20046;-67
2022/09/25 13:01:56;;;;;;;4.68;1.30;;;15.00;99.90;;;;;;5147259;27;20526;-67
2022/09/25 13:04:45;;;;;;;6.15;1.23;;;15.00;99.90;;;;;;5156915;27;20038;-67
2022/09/25 13:07:41;;;;;;;3.90;0.90;;;15.10;99.90;;;;;;5157153;27;20113;-66
2022/09/25 13:10:35;;;;;;;4.45;0.95;;;15.20;99.90;;;;;;5156927;27;20031;-67
2022/09/25 13:13:04;;;;;;;2.80;1.05;;;15.20;99.90;;;;;;5147379;27;20115;-66
2022/09/25 13:15:34;;;;;;;1.73;0.90;;;15.20;99.90;;;;;;5156532;27;20049;-66
2022/09/25 13:18:00;;;;;;;3.97;1.13;;;15.30;99.90;;;;;;5155436;27;20050;-67
2022/09/25 13:20:25;;;;;;;2.45;0.82;;;15.30;99.90;;;;;;5156579;27;20073;-66
2022/09/25 13:23:14;;;;;;;5.90;0.80;;;15.40;99.90;;;;;;5156911;27;20111;-67
2022/09/25 13:25:56;;;;;;;5.35;1.00;;;15.40;99.90;;;;;;5155059;27;20049;-67
2022/09/25 13:28:26;;;;;;;3.30;1.10;;;15.50;99.90;;;;;;5156764;27;20035;-66
2022/09/25 13:31:05;;;;;;;3.50;1.05;;;15.60;99.90;;;;;;5156531;27;20516;-67
2022/09/25 13:33:58;;;;;;;3.65;1.20;;;15.60;99.90;;;;;;5156769;27;20395;-67
2022/09/25 13:36:24;;;;;;;2.35;0.90;;;15.60;99.90;;;;;;5156406;27;20483;-67
2022/09/25 13:41:58;;;;;;;2.67;0.80;;;15.70;99.90;;;;;;5155282;27;20043;-67
2022/09/25 13:44:42;;;;;;;2.58;1.15;;;15.70;99.90;;;;;;5156187;27;20034;-67